sensor_id;sensor_type;location;lat;lon;timestamp;pressure;altitude;pressure_sealevel;temperature;humidity
74778;BME280;63298;53.164;8.610;2023-02-01T00:00:13;101536.72;;;6.00;75.73
74778;BME280;63298;53.164;8.610;2023-02-01T00:02:39;101538.41;;;6.01;75.86
74778;BME280;63298;53.164;8.610;2023-02-01T00:05:05;101537.09;;;5.97;75.87
74778;BME280;63298;53.164;8.610;2023-02-01T00:07:30;101532.81;;;6.09;75.29
74778;BME280;63298;53.164;8.610;2023-02-01T00:09:55;101535.56;;;6.09;75.96
74778;BME280;63298;53.164;8.610;2023-02-01T00:12:20;101529.22;;;6.08;75.42
74778;BME280;63298;53.164;8.610;2023-02-01T00:14:46;101531.22;;;6.00;76.32
74778;BME280;63298;53.164;8.610;2023-02-01T00:17:11;101502.53;;;5.96;75.39
74778;BME280;63298;53.164;8.610;2023-02-01T00:19:36;101506.69;;;6.06;76.15
74778;BME280;63298;53.164;8.610;2023-02-01T00:22:02;101505.81;;;6.06;76.01
74778;BME280;63298;53.164;8.610;2023-02-01T00:24:27;101502.50;;;6.11;75.48
74778;BME280;63298;53.164;8.610;2023-02-01T00:26:52;101504.00;;;6.13;75.43
74778;BME280;63298;53.164;8.610;2023-02-01T00:29:20;101505.81;;;6.06;75.47
74778;BME280;63298;53.164;8.610;2023-02-01T00:31:46;101491.34;;;6.12;76.17
74778;BME280;63298;53.164;8.610;2023-02-01T00:34:15;101490.03;;;6.08;75.82
74778;BME280;63298;53.164;8.610;2023-02-01T00:36:41;101487.97;;;6.10;75.85
74778;BME280;63298;53.164;8.610;2023-02-01T00:39:11;101501.84;;;6.08;76.22
74778;BME280;63298;53.164;8.610;2023-02-01T00:41:37;101503.53;;;6.10;75.68
74778;BME280;63298;53.164;8.610;2023-02-01T00:44:03;101499.84;;;6.17;75.32
74778;BME280;63298;53.164;8.610;2023-02-01T00:46:28;101483.41;;;6.17;75.70
74778;BME280;63298;53.164;8.610;2023-02-01T00:48:54;101485.88;;;6.12;75.09
74778;BME280;63298;53.164;8.610;2023-02-01T00:51:23;101491.34;;;6.12;75.22
74778;BME280;63298;53.164;8.610;2023-02-01T00:53:54;101487.22;;;6.16;75.64
74778;BME280;63298;53.164;8.610;2023-02-01T00:56:20;101484.53;;;6.23;75.84
74778;BME280;63298;53.164;8.610;2023-02-01T00:58:46;101491.03;;;6.22;75.05
74778;BME280;63298;53.164;8.610;2023-02-01T01:03:41;101482.00;;;6.21;75.44
74778;BME280;63298;53.164;8.610;2023-02-01T01:06:11;101474.91;;;6.12;74.96
74778;BME280;63298;53.164;8.610;2023-02-01T01:08:38;101480.47;;;6.19;74.63
74778;BME280;63298;53.164;8.610;2023-02-01T01:11:07;101476.69;;;6.20;74.60
74778;BME280;63298;53.164;8.610;2023-02-01T01:13:32;101468.31;;;6.21;75.22
74778;BME280;63298;53.164;8.610;2023-02-01T01:16:01;101474.69;;;6.28;74.84
74778;BME280;63298;53.164;8.610;2023-02-01T01:18:26;101483.31;;;6.25;74.99
74778;BME280;63298;53.164;8.610;2023-02-01T01:20:55;101467.91;;;6.24;75.18
74778;BME280;63298;53.164;8.610;2023-02-01T01:23:20;101470.72;;;6.31;74.64
74778;BME280;63298;53.164;8.610;2023-02-01T01:25:46;101466.19;;;6.23;75.14
74778;BME280;63298;53.164;8.610;2023-02-01T01:28:12;101455.91;;;6.25;75.31
74778;BME280;63298;53.164;8.610;2023-02-01T01:30:38;101444.59;;;6.14;74.75
74778;BME280;63298;53.164;8.610;2023-02-01T01:33:03;101448.47;;;6.19;75.71
74778;BME280;63298;53.164;8.610;2023-02-01T01:35:30;101459.22;;;6.21;75.09
74778;BME280;63298;53.164;8.610;2023-02-01T01:37:56;101446.00;;;6.24;74.97
74778;BME280;63298;53.164;8.610;2023-02-01T01:40:23;101441.50;;;6.17;75.42
74778;BME280;63298;53.164;8.610;2023-02-01T01:42:48;101444.41;;;6.15;75.20
74778;BME280;63298;53.164;8.610;2023-02-01T01:45:32;101438.09;;;6.15;75.47
74778;BME280;63298;53.164;8.610;2023-02-01T01:48:04;101448.19;;;6.14;75.23
74778;BME280;63298;53.164;8.610;2023-02-01T01:50:35;101432.78;;;6.13;76.06
74778;BME280;63298;53.164;8.610;2023-02-01T01:53:06;101416.56;;;6.12;75.98
74778;BME280;63298;53.164;8.610;2023-02-01T01:55:37;101427.47;;;6.26;75.85
74778;BME280;63298;53.164;8.610;2023-02-01T01:58:06;101399.56;;;6.16;75.79
74778;BME280;63298;53.164;8.610;2023-02-01T02:00:33;101415.19;;;6.22;75.72
74778;BME280;63298;53.164;8.610;2023-02-01T02:03:05;101417.75;;;6.24;75.59
74778;BME280;63298;53.164;8.610;2023-02-01T02:05:33;101391.16;;;6.03;75.99
74778;BME280;63298;53.164;8.610;2023-02-01T02:08:00;101373.19;;;5.94;76.55
74778;BME280;63298;53.164;8.610;2023-02-01T02:10:26;101404.38;;;6.14;75.62
74778;BME280;63298;53.164;8.610;2023-02-01T02:12:52;101401.44;;;6.16;75.76
74778;BME280;63298;53.164;8.610;2023-02-01T02:15:17;101403.16;;;6.17;75.83
74778;BME280;63298;53.164;8.610;2023-02-01T02:17:59;101391.13;;;6.18;75.74
74778;BME280;63298;53.164;8.610;2023-02-01T02:23:18;101377.44;;;6.18;76.10
74778;BME280;63298;53.164;8.610;2023-02-01T02:36:43;101363.94;;;6.16;76.41
74778;BME280;63298;53.164;8.610;2023-02-01T02:44:54;101359.06;;;6.12;76.10
74778;BME280;63298;53.164;8.610;2023-02-01T02:50:05;101346.84;;;6.14;75.93
74778;BME280;63298;53.164;8.610;2023-02-01T02:52:38;101353.00;;;6.16;75.93
74778;BME280;63298;53.164;8.610;2023-02-01T02:55:07;101344.44;;;6.26;75.49
74778;BME280;63298;53.164;8.610;2023-02-01T02:57:40;101348.38;;;6.17;75.49
74778;BME280;63298;53.164;8.610;2023-02-01T03:00:12;101350.69;;;6.20;76.08
74778;BME280;63298;53.164;8.610;2023-02-01T03:02:40;101330.41;;;6.14;76.36
74778;BME280;63298;53.164;8.610;2023-02-01T03:05:05;101342.66;;;6.18;76.63
74778;BME280;63298;53.164;8.610;2023-02-01T03:10:30;101324.28;;;6.12;76.04
74778;BME280;63298;53.164;8.610;2023-02-01T03:13:08;101324.75;;;6.16;76.99
74778;BME280;63298;53.164;8.610;2023-02-01T03:18:13;101326.97;;;6.05;78.14
74778;BME280;63298;53.164;8.610;2023-02-01T03:20:44;101313.06;;;6.07;78.16
74778;BME280;63298;53.164;8.610;2023-02-01T03:23:12;101304.41;;;6.03;79.41
74778;BME280;63298;53.164;8.610;2023-02-01T03:25:39;101314.97;;;6.06;79.45
74778;BME280;63298;53.164;8.610;2023-02-01T03:28:08;101312.44;;;6.05;80.18
74778;BME280;63298;53.164;8.610;2023-02-01T03:30:36;101323.31;;;5.98;80.48
74778;BME280;63298;53.164;8.610;2023-02-01T03:33:05;101306.56;;;5.87;81.16
74778;BME280;63298;53.164;8.610;2023-02-01T03:41:47;101291.91;;;5.80;81.21
74778;BME280;63298;53.164;8.610;2023-02-01T03:44:13;101287.88;;;5.76;81.55
74778;BME280;63298;53.164;8.610;2023-02-01T03:46:55;101284.78;;;5.64;81.80
74778;BME280;63298;53.164;8.610;2023-02-01T03:49:38;101294.78;;;5.72;82.51
74778;BME280;63298;53.164;8.610;2023-02-01T03:52:08;101292.06;;;5.72;82.28
74778;BME280;63298;53.164;8.610;2023-02-01T03:54:35;101287.81;;;5.69;81.80
74778;BME280;63298;53.164;8.610;2023-02-01T03:57:05;101270.22;;;5.57;83.05
74778;BME280;63298;53.164;8.610;2023-02-01T03:59:32;101292.19;;;5.49;83.66
74778;BME280;63298;53.164;8.610;2023-02-01T04:01:58;101288.50;;;5.56;83.44
74778;BME280;63298;53.164;8.610;2023-02-01T04:04:23;101290.97;;;5.51;83.23
74778;BME280;63298;53.164;8.610;2023-02-01T04:06:49;101289.88;;;5.46;82.99
74778;BME280;63298;53.164;8.610;2023-02-01T04:09:15;101254.59;;;5.36;83.58
74778;BME280;63298;53.164;8.610;2023-02-01T04:11:40;101252.72;;;5.37;83.68
74778;BME280;63298;53.164;8.610;2023-02-01T04:14:06;101232.59;;;5.44;82.84
74778;BME280;63298;53.164;8.610;2023-02-01T04:16:32;101229.84;;;5.44;82.83
74778;BME280;63298;53.164;8.610;2023-02-01T04:18:58;101233.25;;;5.46;83.40
74778;BME280;63298;53.164;8.610;2023-02-01T04:21:24;101237.28;;;5.50;84.31
74778;BME280;63298;53.164;8.610;2023-02-01T04:23:50;101247.22;;;5.51;84.33
74778;BME280;63298;53.164;8.610;2023-02-01T04:26:16;101234.75;;;5.49;83.97
74778;BME280;63298;53.164;8.610;2023-02-01T04:28:41;101246.16;;;5.52;84.56
74778;BME280;63298;53.164;8.610;2023-02-01T04:31:07;101240.47;;;5.54;83.81
74778;BME280;63298;53.164;8.610;2023-02-01T04:33:32;101241.06;;;5.49;85.20
74778;BME280;63298;53.164;8.610;2023-02-01T04:35:58;101237.13;;;5.52;85.17
74778;BME280;63298;53.164;8.610;2023-02-01T04:38:23;101244.47;;;5.51;84.90
74778;BME280;63298;53.164;8.610;2023-02-01T04:40:49;101238.88;;;5.59;84.14
74778;BME280;63298;53.164;8.610;2023-02-01T04:43:16;101236.56;;;5.63;84.17
74778;BME280;63298;53.164;8.610;2023-02-01T04:45:41;101226.81;;;5.54;84.53
74778;BME280;63298;53.164;8.610;2023-02-01T04:48:06;101224.72;;;5.56;84.73
74778;BME280;63298;53.164;8.610;2023-02-01T04:50:31;101201.13;;;5.55;84.39
74778;BME280;63298;53.164;8.610;2023-02-01T04:52:57;101221.66;;;5.65;84.02
74778;BME280;63298;53.164;8.610;2023-02-01T04:55:22;101213.72;;;5.71;84.41
74778;BME280;63298;53.164;8.610;2023-02-01T04:57:47;101218.94;;;5.65;84.73
74778;BME280;63298;53.164;8.610;2023-02-01T05:00:13;101202.25;;;5.60;84.36
74778;BME280;63298;53.164;8.610;2023-02-01T05:02:39;101198.25;;;5.63;84.52
74778;BME280;63298;53.164;8.610;2023-02-01T05:05:04;101206.34;;;5.71;83.78
74778;BME280;63298;53.164;8.610;2023-02-01T05:07:30;101195.59;;;5.70;84.33
74778;BME280;63298;53.164;8.610;2023-02-01T05:09:55;101199.84;;;5.72;83.94
74778;BME280;63298;53.164;8.610;2023-02-01T05:12:21;101207.22;;;5.72;84.11
74778;BME280;63298;53.164;8.610;2023-02-01T05:14:46;101178.66;;;5.59;84.75
74778;BME280;63298;53.164;8.610;2023-02-01T05:17:11;101193.84;;;5.62;84.31
74778;BME280;63298;53.164;8.610;2023-02-01T05:19:37;101193.38;;;5.58;85.37
74778;BME280;63298;53.164;8.610;2023-02-01T05:22:02;101209.34;;;5.55;84.60
74778;BME280;63298;53.164;8.610;2023-02-01T05:24:28;101224.22;;;5.67;84.56
74778;BME280;63298;53.164;8.610;2023-02-01T05:26:53;101221.66;;;5.65;84.76
74778;BME280;63298;53.164;8.610;2023-02-01T05:29:19;101222.88;;;5.63;83.88
74778;BME280;63298;53.164;8.610;2023-02-01T05:31:45;101225.44;;;5.64;84.04
74778;BME280;63298;53.164;8.610;2023-02-01T05:34:11;101220.66;;;5.73;83.74
74778;BME280;63298;53.164;8.610;2023-02-01T05:36:37;101212.41;;;5.67;83.16
74778;BME280;63298;53.164;8.610;2023-02-01T05:39:03;101220.41;;;5.68;83.41
74778;BME280;63298;53.164;8.610;2023-02-01T05:41:28;101214.56;;;5.71;83.45
74778;BME280;63298;53.164;8.610;2023-02-01T05:43:53;101199.25;;;5.77;82.68
74778;BME280;63298;53.164;8.610;2023-02-01T05:46:19;101212.53;;;5.80;82.90
74778;BME280;63298;53.164;8.610;2023-02-01T05:48:44;101212.09;;;5.76;83.07
74778;BME280;63298;53.164;8.610;2023-02-01T05:51:10;101198.16;;;5.71;82.82
74778;BME280;63298;53.164;8.610;2023-02-01T05:53:36;101211.94;;;5.63;83.43
74778;BME280;63298;53.164;8.610;2023-02-01T05:56:02;101233.72;;;5.71;84.39
74778;BME280;63298;53.164;8.610;2023-02-01T05:58:27;101238.94;;;5.66;85.25
74778;BME280;63298;53.164;8.610;2023-02-01T06:00:53;101221.25;;;5.69;83.95
74778;BME280;63298;53.164;8.610;2023-02-01T06:03:18;101227.41;;;5.71;84.42
74778;BME280;63298;53.164;8.610;2023-02-01T06:05:44;101224.41;;;5.65;84.70
74778;BME280;63298;53.164;8.610;2023-02-01T06:11:19;101216.81;;;5.68;84.00
74778;BME280;63298;53.164;8.610;2023-02-01T06:13:44;101206.53;;;5.70;83.73
74778;BME280;63298;53.164;8.610;2023-02-01T06:16:10;101229.09;;;5.72;83.98
74778;BME280;63298;53.164;8.610;2023-02-01T06:18:35;101246.38;;;5.72;84.30
74778;BME280;63298;53.164;8.610;2023-02-01T06:21:01;101233.78;;;5.78;84.50
74778;BME280;63298;53.164;8.610;2023-02-01T06:23:27;101235.69;;;5.77;83.96
74778;BME280;63298;53.164;8.610;2023-02-01T06:25:58;101238.63;;;5.76;83.38
74778;BME280;63298;53.164;8.610;2023-02-01T06:28:24;101243.91;;;5.77;82.94
74778;BME280;63298;53.164;8.610;2023-02-01T06:30:49;101237.16;;;5.80;82.98
74778;BME280;63298;53.164;8.610;2023-02-01T06:33:14;101247.72;;;5.83;83.24
74778;BME280;63298;53.164;8.610;2023-02-01T06:35:41;101246.22;;;5.80;83.29
74778;BME280;63298;53.164;8.610;2023-02-01T06:38:06;101250.06;;;5.86;82.84
74778;BME280;63298;53.164;8.610;2023-02-01T06:40:32;101236.75;;;5.83;82.92
74778;BME280;63298;53.164;8.610;2023-02-01T06:42:57;101242.59;;;5.94;82.76
74778;BME280;63298;53.164;8.610;2023-02-01T06:45:22;101236.03;;;5.89;81.91
74778;BME280;63298;53.164;8.610;2023-02-01T06:47:48;101245.53;;;5.93;82.58
74778;BME280;63298;53.164;8.610;2023-02-01T06:50:13;101244.03;;;5.90;82.31
74778;BME280;63298;53.164;8.610;2023-02-01T06:52:38;101260.78;;;5.81;81.82
74778;BME280;63298;53.164;8.610;2023-02-01T06:55:04;101262.06;;;5.85;82.53
74778;BME280;63298;53.164;8.610;2023-02-01T06:57:29;101258.66;;;5.83;82.20
74778;BME280;63298;53.164;8.610;2023-02-01T06:59:55;101267.28;;;5.80;82.05
74778;BME280;63298;53.164;8.610;2023-02-01T07:02:20;101264.34;;;5.81;82.79
74778;BME280;63298;53.164;8.610;2023-02-01T07:04:46;101257.19;;;5.80;82.41
74778;BME280;63298;53.164;8.610;2023-02-01T07:07:12;101251.88;;;5.79;82.52
74778;BME280;63298;53.164;8.610;2023-02-01T07:09:37;101257.94;;;5.74;81.99
74778;BME280;63298;53.164;8.610;2023-02-01T07:12:02;101255.34;;;5.66;82.69
74778;BME280;63298;53.164;8.610;2023-02-01T07:14:28;101279.06;;;5.80;82.55
74778;BME280;63298;53.164;8.610;2023-02-01T07:16:53;101269.09;;;5.73;83.40
74778;BME280;63298;53.164;8.610;2023-02-01T07:19:19;101251.97;;;5.64;83.81
74778;BME280;63298;53.164;8.610;2023-02-01T07:21:44;101271.81;;;5.73;83.34
74778;BME280;63298;53.164;8.610;2023-02-01T07:24:09;101276.75;;;5.77;83.19
74778;BME280;63298;53.164;8.610;2023-02-01T07:26:35;101261.94;;;5.72;82.88
74778;BME280;63298;53.164;8.610;2023-02-01T07:29:00;101254.19;;;5.75;82.77
74778;BME280;63298;53.164;8.610;2023-02-01T07:31:25;101264.47;;;5.73;83.02
74778;BME280;63298;53.164;8.610;2023-02-01T07:33:53;101265.53;;;5.72;83.55
74778;BME280;63298;53.164;8.610;2023-02-01T07:36:19;101270.41;;;5.77;82.74
74778;BME280;63298;53.164;8.610;2023-02-01T07:38:45;101287.09;;;5.82;82.52
74778;BME280;63298;53.164;8.610;2023-02-01T07:41:10;101295.50;;;5.80;83.33
74778;BME280;63298;53.164;8.610;2023-02-01T07:43:36;101293.81;;;5.79;82.97
74778;BME280;63298;53.164;8.610;2023-02-01T07:46:03;101299.47;;;5.78;83.20
74778;BME280;63298;53.164;8.610;2023-02-01T07:48:29;101292.09;;;5.78;83.01
74778;BME280;63298;53.164;8.610;2023-02-01T07:51:02;101292.38;;;5.83;82.61
74778;BME280;63298;53.164;8.610;2023-02-01T07:53:29;101290.66;;;5.82;82.51
74778;BME280;63298;53.164;8.610;2023-02-01T07:55:54;101296.53;;;5.79;83.15
74778;BME280;63298;53.164;8.610;2023-02-01T07:58:20;101292.59;;;5.82;82.97
74778;BME280;63298;53.164;8.610;2023-02-01T08:00:45;101303.13;;;5.85;82.93
74778;BME280;63298;53.164;8.610;2023-02-01T08:03:10;101295.22;;;5.90;82.56
74778;BME280;63298;53.164;8.610;2023-02-01T08:05:35;101297.28;;;5.88;82.98
74778;BME280;63298;53.164;8.610;2023-02-01T08:08:01;101302.09;;;5.86;83.50
74778;BME280;63298;53.164;8.610;2023-02-01T08:10:26;101309.94;;;5.89;83.90
74778;BME280;63298;53.164;8.610;2023-02-01T08:12:57;101304.47;;;5.89;84.08
74778;BME280;63298;53.164;8.610;2023-02-01T08:15:23;101297.56;;;5.78;84.80
74778;BME280;63298;53.164;8.610;2023-02-01T08:17:51;101289.63;;;5.83;84.61
74778;BME280;63298;53.164;8.610;2023-02-01T08:20:18;101311.91;;;5.95;84.42
74778;BME280;63298;53.164;8.610;2023-02-01T08:22:44;101325.41;;;5.96;84.82
74778;BME280;63298;53.164;8.610;2023-02-01T08:25:09;101315.94;;;5.99;83.84
74778;BME280;63298;53.164;8.610;2023-02-01T08:27:35;101300.53;;;5.98;83.94
74778;BME280;63298;53.164;8.610;2023-02-01T08:30:00;101304.59;;;6.02;83.67
74778;BME280;63298;53.164;8.610;2023-02-01T08:32:26;101301.47;;;6.05;83.17
74778;BME280;63298;53.164;8.610;2023-02-01T08:34:52;101300.88;;;6.10;82.57
74778;BME280;63298;53.164;8.610;2023-02-01T08:37:17;101303.94;;;6.21;81.73
74778;BME280;63298;53.164;8.610;2023-02-01T08:39:43;101324.59;;;6.24;81.49
74778;BME280;63298;53.164;8.610;2023-02-01T08:42:08;101295.31;;;6.24;81.19
74778;BME280;63298;53.164;8.610;2023-02-01T08:44:33;101306.72;;;6.28;81.05
74778;BME280;63298;53.164;8.610;2023-02-01T08:46:59;101312.25;;;6.34;80.59
74778;BME280;63298;53.164;8.610;2023-02-01T08:49:24;101310.66;;;6.46;80.79
74778;BME280;63298;53.164;8.610;2023-02-01T08:51:49;101296.34;;;6.44;80.06
74778;BME280;63298;53.164;8.610;2023-02-01T08:54:15;101308.34;;;6.43;80.89
74778;BME280;63298;53.164;8.610;2023-02-01T08:56:40;101302.59;;;6.38;80.78
74778;BME280;63298;53.164;8.610;2023-02-01T08:59:05;101306.25;;;6.45;80.68
74778;BME280;63298;53.164;8.610;2023-02-01T09:01:31;101295.53;;;6.50;80.52
74778;BME280;63298;53.164;8.610;2023-02-01T09:03:56;101297.09;;;6.60;79.99
74778;BME280;63298;53.164;8.610;2023-02-01T09:06:21;101272.09;;;6.48;79.94
74778;BME280;63298;53.164;8.610;2023-02-01T09:08:47;101297.09;;;6.60;79.94
74778;BME280;63298;53.164;8.610;2023-02-01T09:11:17;101286.91;;;6.54;80.66
74778;BME280;63298;53.164;8.610;2023-02-01T09:13:42;101278.53;;;6.62;79.93
74778;BME280;63298;53.164;8.610;2023-02-01T09:16:08;101270.16;;;6.70;80.10
74778;BME280;63298;53.164;8.610;2023-02-01T09:18:33;101280.53;;;6.74;79.82
74778;BME280;63298;53.164;8.610;2023-02-01T09:20:59;101285.41;;;6.79;79.37
74778;BME280;63298;53.164;8.610;2023-02-01T09:23:24;101274.88;;;6.82;79.62
74778;BME280;63298;53.164;8.610;2023-02-01T09:25:50;101271.03;;;6.77;78.63
74778;BME280;63298;53.164;8.610;2023-02-01T09:28:15;101258.97;;;6.71;79.18
74778;BME280;63298;53.164;8.610;2023-02-01T09:30:41;101264.31;;;6.79;79.00
74778;BME280;63298;53.164;8.610;2023-02-01T09:33:06;101266.69;;;6.89;78.81
74778;BME280;63298;53.164;8.610;2023-02-01T09:35:31;101264.56;;;6.84;78.76
74778;BME280;63298;53.164;8.610;2023-02-01T09:37:57;101264.78;;;6.89;78.66
74778;BME280;63298;53.164;8.610;2023-02-01T09:40:22;101266.50;;;6.90;78.29
74778;BME280;63298;53.164;8.610;2023-02-01T09:46:21;101257.66;;;6.95;77.39
74778;BME280;63298;53.164;8.610;2023-02-01T09:48:49;101252.97;;;6.89;77.42
74778;BME280;63298;53.164;8.610;2023-02-01T09:51:33;101253.16;;;6.87;78.15
74778;BME280;63298;53.164;8.610;2023-02-01T09:54:19;101250.78;;;6.78;77.55
74778;BME280;63298;53.164;8.610;2023-02-01T09:57:03;101270.66;;;6.86;77.69
74778;BME280;63298;53.164;8.610;2023-02-01T09:59:38;101260.59;;;6.93;78.13
74778;BME280;63298;53.164;8.610;2023-02-01T10:02:12;101253.38;;;6.86;77.45
74778;BME280;63298;53.164;8.610;2023-02-01T10:04:38;101259.06;;;6.84;77.68
74778;BME280;63298;53.164;8.610;2023-02-01T10:10:21;101255.47;;;6.84;77.99
74778;BME280;63298;53.164;8.610;2023-02-01T10:22:01;101230.16;;;6.82;78.15
74778;BME280;63298;53.164;8.610;2023-02-01T10:29:41;101231.41;;;6.79;79.03
74778;BME280;63298;53.164;8.610;2023-02-01T10:32:19;101215.81;;;6.80;79.60
74778;BME280;63298;53.164;8.610;2023-02-01T10:34:50;101219.59;;;6.79;79.25
74778;BME280;63298;53.164;8.610;2023-02-01T10:37:25;101209.88;;;6.76;80.33
74778;BME280;63298;53.164;8.610;2023-02-01T10:39:56;101213.69;;;6.75;80.38
74778;BME280;63298;53.164;8.610;2023-02-01T10:42:26;101213.44;;;6.70;80.32
74778;BME280;63298;53.164;8.610;2023-02-01T10:44:55;101203.53;;;6.69;80.70
74778;BME280;63298;53.164;8.610;2023-02-01T10:47:21;101203.28;;;6.64;81.18
74778;BME280;63298;53.164;8.610;2023-02-01T10:54:48;101180.69;;;6.56;81.55
74778;BME280;63298;53.164;8.610;2023-02-01T10:57:23;101175.16;;;6.49;82.73
74778;BME280;63298;53.164;8.610;2023-02-01T10:59:49;101159.16;;;6.53;81.60
74778;BME280;63298;53.164;8.610;2023-02-01T11:02:24;101166.97;;;6.56;82.28
74778;BME280;63298;53.164;8.610;2023-02-01T11:04:50;101166.09;;;6.48;82.20
74778;BME280;63298;53.164;8.610;2023-02-01T11:07:24;101157.88;;;6.48;82.27
74778;BME280;63298;53.164;8.610;2023-02-01T11:09:53;101146.66;;;6.43;82.15
74778;BME280;63298;53.164;8.610;2023-02-01T11:12:33;101150.44;;;6.42;82.14
74778;BME280;63298;53.164;8.610;2023-02-01T11:17:46;101123.66;;;6.31;82.46
74778;BME280;63298;53.164;8.610;2023-02-01T11:20:21;101119.22;;;6.30;82.96
74778;BME280;63298;53.164;8.610;2023-02-01T11:22:55;101091.56;;;6.25;82.96
74778;BME280;63298;53.164;8.610;2023-02-01T11:25:21;101089.88;;;6.24;82.41
74778;BME280;63298;53.164;8.610;2023-02-01T11:27:53;101090.53;;;6.26;83.25
74778;BME280;63298;53.164;8.610;2023-02-01T11:30:36;101083.59;;;6.30;83.52
74778;BME280;63298;53.164;8.610;2023-02-01T11:33:03;101053.59;;;6.16;82.87
74778;BME280;63298;53.164;8.610;2023-02-01T11:35:30;101087.31;;;6.16;82.38
74778;BME280;63298;53.164;8.610;2023-02-01T11:37:58;101072.28;;;6.05;82.00
74778;BME280;63298;53.164;8.610;2023-02-01T11:45:53;101027.69;;;5.84;83.14
74778;BME280;63298;53.164;8.610;2023-02-01T11:48:19;101026.63;;;5.85;83.23
74778;BME280;63298;53.164;8.610;2023-02-01T11:53:40;101014.41;;;5.81;84.19
74778;BME280;63298;53.164;8.610;2023-02-01T11:59:08;101011.44;;;5.76;84.79
74778;BME280;63298;53.164;8.610;2023-02-01T12:18:12;101145.91;;;4.08;82.94
74778;BME280;63298;53.164;8.610;2023-02-01T12:21:21;101162.75;;;3.97;83.48
74778;BME280;63298;53.164;8.610;2023-02-01T12:24:06;101156.81;;;3.78;83.95
74778;BME280;63298;53.164;8.610;2023-02-01T12:40:43;101157.34;;;3.74;84.48
74778;BME280;63298;53.164;8.610;2023-02-01T12:43:14;101171.50;;;3.92;84.18
74778;BME280;63298;53.164;8.610;2023-02-01T12:45:44;101157.19;;;3.90;84.30
74778;BME280;63298;53.164;8.610;2023-02-01T12:51:14;101149.41;;;4.02;83.59
74778;BME280;63298;53.164;8.610;2023-02-01T12:53:50;101172.28;;;4.15;83.56
74778;BME280;63298;53.164;8.610;2023-02-01T12:56:30;101177.44;;;4.25;83.05
74778;BME280;63298;53.164;8.610;2023-02-01T12:59:04;101178.81;;;4.29;82.68
74778;BME280;63298;53.164;8.610;2023-02-01T13:01:44;101168.78;;;4.36;83.42
74778;BME280;63298;53.164;8.610;2023-02-01T13:04:17;101175.78;;;4.53;83.07
74778;BME280;63298;53.164;8.610;2023-02-01T13:06:53;101173.13;;;4.60;82.75
74778;BME280;63298;53.164;8.610;2023-02-01T13:09:39;101160.41;;;4.52;82.51
74778;BME280;63298;53.164;8.610;2023-02-01T13:12:15;101143.56;;;4.49;82.45
74778;BME280;63298;53.164;8.610;2023-02-01T13:15:14;101168.41;;;4.68;83.13
74778;BME280;63298;53.164;8.610;2023-02-01T13:17:41;101174.97;;;4.74;82.70
74778;BME280;63298;53.164;8.610;2023-02-01T13:20:31;101177.91;;;4.72;84.04
74778;BME280;63298;53.164;8.610;2023-02-01T13:23:05;101151.75;;;4.63;84.08
74778;BME280;63298;53.164;8.610;2023-02-01T13:25:46;101149.81;;;4.78;84.26
74778;BME280;63298;53.164;8.610;2023-02-01T13:28:28;101168.16;;;4.85;84.97
74778;BME280;63298;53.164;8.610;2023-02-01T13:36:44;101164.25;;;5.08;83.98
74778;BME280;63298;53.164;8.610;2023-02-01T13:39:28;101167.72;;;5.17;84.30
74778;BME280;63298;53.164;8.610;2023-02-01T13:42:11;101156.66;;;5.25;84.30
74778;BME280;63298;53.164;8.610;2023-02-01T13:44:42;101128.00;;;5.21;83.91
74778;BME280;63298;53.164;8.610;2023-02-01T13:49:42;101171.03;;;5.55;83.08
74778;BME280;63298;53.164;8.610;2023-02-01T13:52:24;101171.13;;;5.61;83.75
74778;BME280;63298;53.164;8.610;2023-02-01T13:55:01;101147.97;;;5.64;83.52
74778;BME280;63298;53.164;8.610;2023-02-01T13:57:38;101144.63;;;5.69;83.44
74778;BME280;63298;53.164;8.610;2023-02-01T14:00:28;101179.44;;;5.96;83.51
74778;BME280;63298;53.164;8.610;2023-02-01T14:08:12;101133.22;;;5.86;83.17
74778;BME280;63298;53.164;8.610;2023-02-01T14:23:54;101127.75;;;6.14;82.13
74778;BME280;63298;53.164;8.610;2023-02-01T14:31:58;101147.44;;;6.31;82.87
74778;BME280;63298;53.164;8.610;2023-02-01T14:34:48;101143.88;;;6.30;83.00
74778;BME280;63298;53.164;8.610;2023-02-01T14:42:27;101135.91;;;6.42;81.88
74778;BME280;63298;53.164;8.610;2023-02-01T14:44:56;101149.88;;;6.54;81.52
74778;BME280;63298;53.164;8.610;2023-02-01T14:47:40;101130.84;;;6.39;81.79
74778;BME280;63298;53.164;8.610;2023-02-01T14:53:14;101168.03;;;6.61;81.41
74778;BME280;63298;53.164;8.610;2023-02-01T14:58:16;101175.69;;;6.66;80.97
74778;BME280;63298;53.164;8.610;2023-02-01T15:00:51;101173.56;;;6.68;80.78
74778;BME280;63298;53.164;8.610;2023-02-01T15:03:26;101160.66;;;6.62;81.17
74778;BME280;63298;53.164;8.610;2023-02-01T15:05:57;101144.41;;;6.54;80.47
74778;BME280;63298;53.164;8.610;2023-02-01T15:08:28;101153.09;;;6.64;79.77
74778;BME280;63298;53.164;8.610;2023-02-01T15:10:56;101145.88;;;6.49;78.88
74778;BME280;63298;53.164;8.610;2023-02-01T15:13:27;101176.16;;;6.76;79.34
74778;BME280;63298;53.164;8.610;2023-02-01T15:16:14;101154.97;;;6.63;79.24
74778;BME280;63298;53.164;8.610;2023-02-01T15:18:40;101167.00;;;6.62;78.27
74778;BME280;63298;53.164;8.610;2023-02-01T15:21:14;101161.38;;;6.77;78.90
74778;BME280;63298;53.164;8.610;2023-02-01T15:23:40;101171.28;;;6.78;77.25
74778;BME280;63298;53.164;8.610;2023-02-01T15:26:05;101135.19;;;6.68;78.22
74778;BME280;63298;53.164;8.610;2023-02-01T15:28:31;101152.28;;;6.76;77.91
74778;BME280;63298;53.164;8.610;2023-02-01T15:30:57;101165.41;;;6.87;77.43
74778;BME280;63298;53.164;8.610;2023-02-01T15:33:24;101144.53;;;6.80;77.85
74778;BME280;63298;53.164;8.610;2023-02-01T15:35:54;101163.06;;;6.78;77.25
74778;BME280;63298;53.164;8.610;2023-02-01T15:41:20;101183.78;;;6.87;76.07
74778;BME280;63298;53.164;8.610;2023-02-01T15:46:40;101187.53;;;6.79;76.39
74778;BME280;63298;53.164;8.610;2023-02-01T15:51:44;101201.44;;;6.78;77.27